sensor_id;sensor_type;location;lat;lon;timestamp;temperature;humidity
55329;DHT22;41205;44.264;19.884;2023-02-26T00:01:22;179.50;2252.80
55329;DHT22;41205;44.264;19.884;2023-02-26T00:03:50;179.60;2252.80
55329;DHT22;41205;44.264;19.884;2023-02-26T00:06:15;179.70;2252.80
55329;DHT22;41205;44.264;19.884;2023-02-26T00:08:41;179.60;2252.80
55329;DHT22;41205;44.264;19.884;2023-02-26T00:11:08;179.30;2252.80
55329;DHT22;41205;44.264;19.884;2023-02-26T00:13:39;179.20;2252.80
55329;DHT22;41205;44.264;19.884;2023-02-26T00:18:50;179.30;2252.80
55329;DHT22;41205;44.264;19.884;2023-02-26T00:21:21;179.30;2252.80
55329;DHT22;41205;44.264;19.884;2023-02-26T00:23:47;179.30;2252.80
55329;DHT22;41205;44.264;19.884;2023-02-26T00:26:13;154.50;2252.80
55329;DHT22;41205;44.264;19.884;2023-02-26T00:28:39;179.20;2252.80
55329;DHT22;41205;44.264;19.884;2023-02-26T00:31:05;154.40;2252.80
55329;DHT22;41205;44.264;19.884;2023-02-26T00:33:32;179.20;2252.80
55329;DHT22;41205;44.264;19.884;2023-02-26T00:41:22;154.40;2252.80
55329;DHT22;41205;44.264;19.884;2023-02-26T00:43:48;154.50;2252.80
55329;DHT22;41205;44.264;19.884;2023-02-26T00:46:50;179.20;2252.80
55329;DHT22;41205;44.264;19.884;2023-02-26T00:52:17;154.50;2252.80
55329;DHT22;41205;44.264;19.884;2023-02-26T00:54:44;154.50;2252.80
55329;DHT22;41205;44.264;19.884;2023-02-26T00:57:10;179.30;2252.80
55329;DHT22;41205;44.264;19.884;2023-02-26T00:59:36;179.20;2252.80
55329;DHT22;41205;44.264;19.884;2023-02-26T01:02:01;179.20;2252.80
55329;DHT22;41205;44.264;19.884;2023-02-26T01:04:27;154.50;2252.80
55329;DHT22;41205;44.264;19.884;2023-02-26T01:06:56;154.50;2252.80
55329;DHT22;41205;44.264;19.884;2023-02-26T01:09:30;154.50;2252.80
55329;DHT22;41205;44.264;19.884;2023-02-26T01:12:00;154.50;2252.80
55329;DHT22;41205;44.264;19.884;2023-02-26T01:14:27;179.20;2252.80
55329;DHT22;41205;44.264;19.884;2023-02-26T01:17:25;154.50;2252.80
55329;DHT22;41205;44.264;19.884;2023-02-26T01:19:55;154.50;2252.80
55329;DHT22;41205;44.264;19.884;2023-02-26T01:25:00;154.50;2252.80
55329;DHT22;41205;44.264;19.884;2023-02-26T01:27:27;154.50;2252.80
55329;DHT22;41205;44.264;19.884;2023-02-26T01:29:53;179.20;2252.80
55329;DHT22;41205;44.264;19.884;2023-02-26T01:32:33;179.20;2252.80
55329;DHT22;41205;44.264;19.884;2023-02-26T01:35:28;154.50;2252.80
55329;DHT22;41205;44.264;19.884;2023-02-26T01:43:11;179.40;2252.80
55329;DHT22;41205;44.264;19.884;2023-02-26T01:48:55;179.50;2252.80
55329;DHT22;41205;44.264;19.884;2023-02-26T01:54:07;179.40;2252.80
55329;DHT22;41205;44.264;19.884;2023-02-26T01:56:34;179.70;2252.80
55329;DHT22;41205;44.264;19.884;2023-02-26T01:59:02;179.30;2252.80
55329;DHT22;41205;44.264;19.884;2023-02-26T02:01:31;179.30;2252.80
55329;DHT22;41205;44.264;19.884;2023-02-26T02:03:58;179.20;2252.80
55329;DHT22;41205;44.264;19.884;2023-02-26T02:06:25;179.20;2252.80
55329;DHT22;41205;44.264;19.884;2023-02-26T02:08:52;154.50;2252.80
55329;DHT22;41205;44.264;19.884;2023-02-26T02:11:18;179.20;2252.80
55329;DHT22;41205;44.264;19.884;2023-02-26T02:16:48;154.50;2252.80
55329;DHT22;41205;44.264;19.884;2023-02-26T02:25:07;154.40;2252.80
55329;DHT22;41205;44.264;19.884;2023-02-26T02:32:51;154.50;2252.80
55329;DHT22;41205;44.264;19.884;2023-02-26T02:35:38;154.50;2252.80
55329;DHT22;41205;44.264;19.884;2023-02-26T02:38:15;154.50;2252.80
55329;DHT22;41205;44.264;19.884;2023-02-26T02:40:47;154.40;2252.80
55329;DHT22;41205;44.264;19.884;2023-02-26T02:43:20;154.30;2252.80
55329;DHT22;41205;44.264;19.884;2023-02-26T02:45:52;154.50;2252.80
55329;DHT22;41205;44.264;19.884;2023-02-26T02:51:20;154.20;2252.80
55329;DHT22;41205;44.264;19.884;2023-02-26T02:59:19;154.10;2252.80
55329;DHT22;41205;44.264;19.884;2023-02-26T03:01:51;154.10;2252.80
55329;DHT22;41205;44.264;19.884;2023-02-26T03:04:18;154.10;2252.80
55329;DHT22;41205;44.264;19.884;2023-02-26T03:06:44;153.90;2252.80
55329;DHT22;41205;44.264;19.884;2023-02-26T03:09:14;153.80;2252.80
55329;DHT22;41205;44.264;19.884;2023-02-26T03:11:41;153.90;2252.80
55329;DHT22;41205;44.264;19.884;2023-02-26T03:14:08;154.00;2252.80
55329;DHT22;41205;44.264;19.884;2023-02-26T03:17:17;154.10;2252.80
55329;DHT22;41205;44.264;19.884;2023-02-26T03:36:10;153.70;2252.80
55329;DHT22;41205;44.264;19.884;2023-02-26T03:38:49;128.90;2252.80
55329;DHT22;41205;44.264;19.884;2023-02-26T03:41:40;128.90;2252.80
55329;DHT22;41205;44.264;19.884;2023-02-26T03:44:11;128.60;2252.80
55329;DHT22;41205;44.264;19.884;2023-02-26T03:46:44;128.80;2252.80
55329;DHT22;41205;44.264;19.884;2023-02-26T03:49:15;128.60;2252.80
55329;DHT22;41205;44.264;19.884;2023-02-26T03:51:43;128.70;2252.80
55329;DHT22;41205;44.264;19.884;2023-02-26T03:54:25;128.60;2252.80
55329;DHT22;41205;44.264;19.884;2023-02-26T03:56:52;128.60;2252.80
55329;DHT22;41205;44.264;19.884;2023-02-26T03:59:18;128.70;2252.80
55329;DHT22;41205;44.264;19.884;2023-02-26T04:01:53;128.50;2252.80
55329;DHT22;41205;44.264;19.884;2023-02-26T04:06:58;128.40;2252.80
55329;DHT22;41205;44.264;19.884;2023-02-26T04:09:24;128.40;2252.80
55329;DHT22;41205;44.264;19.884;2023-02-26T04:11:52;128.20;2252.80
55329;DHT22;41205;44.264;19.884;2023-02-26T04:14:18;128.30;2252.80
55329;DHT22;41205;44.264;19.884;2023-02-26T04:16:45;128.30;2252.80
55329;DHT22;41205;44.264;19.884;2023-02-26T04:19:10;128.50;2252.80
55329;DHT22;41205;44.264;19.884;2023-02-26T04:21:36;128.50;2252.80
55329;DHT22;41205;44.264;19.884;2023-02-26T04:24:02;128.30;2252.80
55329;DHT22;41205;44.264;19.884;2023-02-26T04:26:28;128.20;2252.80
55329;DHT22;41205;44.264;19.884;2023-02-26T04:28:53;128.20;2252.80
55329;DHT22;41205;44.264;19.884;2023-02-26T04:31:19;128.40;2252.80
55329;DHT22;41205;44.264;19.884;2023-02-26T04:33:45;128.30;2252.80
55329;DHT22;41205;44.264;19.884;2023-02-26T04:36:10;103.30;2227.20
55329;DHT22;41205;44.264;19.884;2023-02-26T04:38:36;103.30;2227.20
55329;DHT22;41205;44.264;19.884;2023-02-26T04:41:02;103.20;2227.20
55329;DHT22;41205;44.264;19.884;2023-02-26T04:43:28;103.30;2227.20
55329;DHT22;41205;44.264;19.884;2023-02-26T04:45:53;103.10;2227.20
55329;DHT22;41205;44.264;19.884;2023-02-26T04:48:19;103.00;2227.20
55329;DHT22;41205;44.264;19.884;2023-02-26T04:50:45;103.30;2227.20
55329;DHT22;41205;44.264;19.884;2023-02-26T04:53:12;103.30;2227.20
55329;DHT22;41205;44.264;19.884;2023-02-26T04:55:38;128.00;2252.80
55329;DHT22;41205;44.264;19.884;2023-02-26T04:58:06;128.10;2252.80
55329;DHT22;41205;44.264;19.884;2023-02-26T05:00:32;128.20;2252.80
55329;DHT22;41205;44.264;19.884;2023-02-26T05:02:57;128.30;2252.80
55329;DHT22;41205;44.264;19.884;2023-02-26T05:05:24;128.20;2252.80
55329;DHT22;41205;44.264;19.884;2023-02-26T05:07:50;128.30;2252.80
55329;DHT22;41205;44.264;19.884;2023-02-26T05:10:18;128.30;2252.80
55329;DHT22;41205;44.264;19.884;2023-02-26T05:12:44;128.30;2252.80
55329;DHT22;41205;44.264;19.884;2023-02-26T05:15:12;128.30;2252.80
55329;DHT22;41205;44.264;19.884;2023-02-26T05:17:38;128.30;2252.80
55329;DHT22;41205;44.264;19.884;2023-02-26T05:20:05;128.10;2252.80
55329;DHT22;41205;44.264;19.884;2023-02-26T05:22:35;128.20;2252.80
55329;DHT22;41205;44.264;19.884;2023-02-26T05:25:01;103.30;2227.20
55329;DHT22;41205;44.264;19.884;2023-02-26T05:27:27;103.20;2227.20
55329;DHT22;41205;44.264;19.884;2023-02-26T05:29:52;103.30;2227.20
55329;DHT22;41205;44.264;19.884;2023-02-26T05:32:18;103.20;2227.20
55329;DHT22;41205;44.264;19.884;2023-02-26T05:34:44;128.00;2252.80
55329;DHT22;41205;44.264;19.884;2023-02-26T05:37:09;128.00;2252.80
55329;DHT22;41205;44.264;19.884;2023-02-26T05:39:35;128.10;2252.80
55329;DHT22;41205;44.264;19.884;2023-02-26T05:42:01;128.10;2252.80
55329;DHT22;41205;44.264;19.884;2023-02-26T05:44:26;128.00;2252.80
55329;DHT22;41205;44.264;19.884;2023-02-26T05:46:52;128.00;2252.80
55329;DHT22;41205;44.264;19.884;2023-02-26T05:49:18;128.00;2252.80
55329;DHT22;41205;44.264;19.884;2023-02-26T05:51:44;103.30;2227.20
55329;DHT22;41205;44.264;19.884;2023-02-26T05:54:09;103.20;2227.20
55329;DHT22;41205;44.264;19.884;2023-02-26T05:56:35;103.10;2227.20
55329;DHT22;41205;44.264;19.884;2023-02-26T05:59:02;103.20;2227.20
55329;DHT22;41205;44.264;19.884;2023-02-26T06:01:27;128.00;2252.80
55329;DHT22;41205;44.264;19.884;2023-02-26T06:03:53;103.20;2227.20
55329;DHT22;41205;44.264;19.884;2023-02-26T06:06:19;102.90;2227.20
55329;DHT22;41205;44.264;19.884;2023-02-26T06:08:46;102.70;2227.20
55329;DHT22;41205;44.264;19.884;2023-02-26T06:11:12;102.70;2227.20
55329;DHT22;41205;44.264;19.884;2023-02-26T06:13:38;102.80;2227.20
55329;DHT22;41205;44.264;19.884;2023-02-26T06:16:04;102.60;2227.20
55329;DHT22;41205;44.264;19.884;2023-02-26T06:18:30;102.50;2227.20
55329;DHT22;41205;44.264;19.884;2023-02-26T06:20:58;102.70;2227.20
55329;DHT22;41205;44.264;19.884;2023-02-26T06:23:24;102.90;2227.20
55329;DHT22;41205;44.264;19.884;2023-02-26T06:25:50;102.90;2227.20
55329;DHT22;41205;44.264;19.884;2023-02-26T06:28:17;103.10;2227.20
55329;DHT22;41205;44.264;19.884;2023-02-26T06:30:43;103.20;2227.20
55329;DHT22;41205;44.264;19.884;2023-02-26T06:33:09;103.20;2227.20
55329;DHT22;41205;44.264;19.884;2023-02-26T06:35:35;103.20;2227.20
55329;DHT22;41205;44.264;19.884;2023-02-26T06:38:00;128.00;2252.80
55329;DHT22;41205;44.264;19.884;2023-02-26T06:40:26;103.20;2227.20
55329;DHT22;41205;44.264;19.884;2023-02-26T06:42:52;103.30;2227.20
55329;DHT22;41205;44.264;19.884;2023-02-26T06:45:17;128.00;2252.80
55329;DHT22;41205;44.264;19.884;2023-02-26T06:47:43;128.10;2252.80
55329;DHT22;41205;44.264;19.884;2023-02-26T06:50:10;128.00;2252.80
55329;DHT22;41205;44.264;19.884;2023-02-26T06:52:36;103.20;2227.20
55329;DHT22;41205;44.264;19.884;2023-02-26T06:55:02;103.30;2227.20
55329;DHT22;41205;44.264;19.884;2023-02-26T06:57:28;128.20;2252.80
55329;DHT22;41205;44.264;19.884;2023-02-26T06:59:54;128.40;2252.80
55329;DHT22;41205;44.264;19.884;2023-02-26T07:02:21;128.50;2252.80
55329;DHT22;41205;44.264;19.884;2023-02-26T07:04:47;128.40;2252.80
55329;DHT22;41205;44.264;19.884;2023-02-26T07:07:13;128.60;2252.80
55329;DHT22;41205;44.264;19.884;2023-02-26T07:09:39;128.60;2252.80
55329;DHT22;41205;44.264;19.884;2023-02-26T07:12:06;128.40;2252.80
55329;DHT22;41205;44.264;19.884;2023-02-26T07:14:32;128.40;2252.80
55329;DHT22;41205;44.264;19.884;2023-02-26T07:16:59;128.40;2252.80
55329;DHT22;41205;44.264;19.884;2023-02-26T07:19:25;128.20;2252.80
55329;DHT22;41205;44.264;19.884;2023-02-26T07:21:50;128.00;2252.80
55329;DHT22;41205;44.264;19.884;2023-02-26T07:24:17;103.20;2227.20
55329;DHT22;41205;44.264;19.884;2023-02-26T07:26:42;103.20;2227.20
55329;DHT22;41205;44.264;19.884;2023-02-26T07:29:08;103.20;2227.20
55329;DHT22;41205;44.264;19.884;2023-02-26T07:31:34;128.00;2252.80
55329;DHT22;41205;44.264;19.884;2023-02-26T07:33:59;128.00;2252.80
55329;DHT22;41205;44.264;19.884;2023-02-26T07:36:25;103.30;2227.20
55329;DHT22;41205;44.264;19.884;2023-02-26T07:38:51;103.00;2227.20
55329;DHT22;41205;44.264;19.884;2023-02-26T07:41:16;103.00;2227.20
55329;DHT22;41205;44.264;19.884;2023-02-26T07:43:42;103.10;2227.20
55329;DHT22;41205;44.264;19.884;2023-02-26T07:46:08;103.00;2227.20
55329;DHT22;41205;44.264;19.884;2023-02-26T07:48:33;102.90;2227.20
55329;DHT22;41205;44.264;19.884;2023-02-26T07:50:59;102.90;2227.20
55329;DHT22;41205;44.264;19.884;2023-02-26T07:53:25;103.10;2227.20
55329;DHT22;41205;44.264;19.884;2023-02-26T07:55:51;103.20;2227.20
55329;DHT22;41205;44.264;19.884;2023-02-26T07:58:17;128.00;2252.80
55329;DHT22;41205;44.264;19.884;2023-02-26T08:00:43;103.30;2227.20
55329;DHT22;41205;44.264;19.884;2023-02-26T08:03:09;128.00;2252.80
55329;DHT22;41205;44.264;19.884;2023-02-26T08:05:35;128.10;2252.80
55329;DHT22;41205;44.264;19.884;2023-02-26T08:08:01;103.30;2227.20
55329;DHT22;41205;44.264;19.884;2023-02-26T08:10:28;128.10;2252.80
55329;DHT22;41205;44.264;19.884;2023-02-26T08:12:53;128.10;2252.80
55329;DHT22;41205;44.264;19.884;2023-02-26T08:15:19;103.20;2227.20
55329;DHT22;41205;44.264;19.884;2023-02-26T08:17:45;103.20;2227.20
55329;DHT22;41205;44.264;19.884;2023-02-26T08:20:12;103.30;2227.20
55329;DHT22;41205;44.264;19.884;2023-02-26T08:22:39;103.30;2227.20
55329;DHT22;41205;44.264;19.884;2023-02-26T08:25:05;103.20;2227.20
55329;DHT22;41205;44.264;19.884;2023-02-26T08:27:32;103.20;2227.20
55329;DHT22;41205;44.264;19.884;2023-02-26T08:29:58;128.40;2252.80
55329;DHT22;41205;44.264;19.884;2023-02-26T08:32:23;128.20;2252.80
55329;DHT22;41205;44.264;19.884;2023-02-26T08:34:51;128.10;2252.80
55329;DHT22;41205;44.264;19.884;2023-02-26T08:37:17;128.10;2252.80
55329;DHT22;41205;44.264;19.884;2023-02-26T08:39:42;128.00;2252.80
55329;DHT22;41205;44.264;19.884;2023-02-26T08:42:08;128.00;2252.80
55329;DHT22;41205;44.264;19.884;2023-02-26T08:44:34;128.10;2252.80
55329;DHT22;41205;44.264;19.884;2023-02-26T08:47:01;128.30;2252.80
55329;DHT22;41205;44.264;19.884;2023-02-26T08:49:28;128.60;2252.80
55329;DHT22;41205;44.264;19.884;2023-02-26T08:51:53;128.90;2252.80
55329;DHT22;41205;44.264;19.884;2023-02-26T08:54:19;153.60;2252.80
55329;DHT22;41205;44.264;19.884;2023-02-26T08:56:45;153.60;2252.80
55329;DHT22;41205;44.264;19.884;2023-02-26T08:59:11;154.30;2252.80
55329;DHT22;41205;44.264;19.884;2023-02-26T09:01:38;153.60;2252.80
55329;DHT22;41205;44.264;19.884;2023-02-26T09:04:04;153.80;2252.80
55329;DHT22;41205;44.264;19.884;2023-02-26T09:06:29;153.90;2252.80
55329;DHT22;41205;44.264;19.884;2023-02-26T09:08:55;153.90;2252.80
55329;DHT22;41205;44.264;19.884;2023-02-26T09:11:21;154.10;2252.80
55329;DHT22;41205;44.264;19.884;2023-02-26T09:13:47;154.20;2252.80
55329;DHT22;41205;44.264;19.884;2023-02-26T09:16:13;154.40;2252.80
55329;DHT22;41205;44.264;19.884;2023-02-26T09:18:39;179.20;2252.80
55329;DHT22;41205;44.264;19.884;2023-02-26T09:21:04;179.30;2252.80
55329;DHT22;41205;44.264;19.884;2023-02-26T09:23:30;179.40;2252.80
55329;DHT22;41205;44.264;19.884;2023-02-26T09:25:56;179.40;2252.80
55329;DHT22;41205;44.264;19.884;2023-02-26T09:28:24;179.50;2252.80
55329;DHT22;41205;44.264;19.884;2023-02-26T09:30:53;179.50;2252.80
55329;DHT22;41205;44.264;19.884;2023-02-26T09:33:20;179.60;2252.80
55329;DHT22;41205;44.264;19.884;2023-02-26T09:35:50;179.70;2252.80
55329;DHT22;41205;44.264;19.884;2023-02-26T09:38:16;179.60;2252.80
55329;DHT22;41205;44.264;19.884;2023-02-26T09:40:58;179.80;2252.80
55329;DHT22;41205;44.264;19.884;2023-02-26T09:43:48;179.90;2252.80
55329;DHT22;41205;44.264;19.884;2023-02-26T09:48:47;179.90;2252.80
55329;DHT22;41205;44.264;19.884;2023-02-26T09:51:18;180.00;2252.80
55329;DHT22;41205;44.264;19.884;2023-02-26T09:53:48;179.90;2252.80
55329;DHT22;41205;44.264;19.884;2023-02-26T09:56:20;179.70;2252.80
55329;DHT22;41205;44.264;19.884;2023-02-26T09:58:47;179.60;2252.80
55329;DHT22;41205;44.264;19.884;2023-02-26T10:17:19;179.70;2252.80
55329;DHT22;41205;44.264;19.884;2023-02-26T10:19:48;179.50;2252.80
55329;DHT22;41205;44.264;19.884;2023-02-26T10:22:40;179.70;2252.80
55329;DHT22;41205;44.264;19.884;2023-02-26T10:25:41;179.70;2252.80
55329;DHT22;41205;44.264;19.884;2023-02-26T10:28:34;179.70;2252.80
55329;DHT22;41205;44.264;19.884;2023-02-26T10:31:12;179.40;2252.80
55329;DHT22;41205;44.264;19.884;2023-02-26T10:34:07;179.30;2252.80
55329;DHT22;41205;44.264;19.884;2023-02-26T10:37:23;179.30;2252.80
55329;DHT22;41205;44.264;19.884;2023-02-26T10:39:56;154.50;2252.80
55329;DHT22;41205;44.264;19.884;2023-02-26T10:49:03;179.40;2252.80
55329;DHT22;41205;44.264;19.884;2023-02-26T10:51:35;179.30;2252.80
55329;DHT22;41205;44.264;19.884;2023-02-26T10:57:26;179.20;2252.80
55329;DHT22;41205;44.264;19.884;2023-02-26T10:59:53;154.40;2252.80
55329;DHT22;41205;44.264;19.884;2023-02-26T11:02:40;154.10;2252.80
55329;DHT22;41205;44.264;19.884;2023-02-26T11:05:17;154.20;2252.80
55329;DHT22;41205;44.264;19.884;2023-02-26T11:07:50;154.50;2252.80
55329;DHT22;41205;44.264;19.884;2023-02-26T11:10:19;154.40;2252.80
55329;DHT22;41205;44.264;19.884;2023-02-26T11:12:46;154.40;2252.80
55329;DHT22;41205;44.264;19.884;2023-02-26T11:15:17;154.30;2252.80
55329;DHT22;41205;44.264;19.884;2023-02-26T11:17:46;154.00;2252.80
55329;DHT22;41205;44.264;19.884;2023-02-26T11:20:29;154.30;2252.80
55329;DHT22;41205;44.264;19.884;2023-02-26T11:22:57;154.20;2252.80
55329;DHT22;41205;44.264;19.884;2023-02-26T11:25:28;154.20;2252.80
55329;DHT22;41205;44.264;19.884;2023-02-26T11:28:01;153.90;2252.80
55329;DHT22;41205;44.264;19.884;2023-02-26T11:30:31;153.60;2252.80
55329;DHT22;41205;44.264;19.884;2023-02-26T11:33:10;153.70;2252.80
55329;DHT22;41205;44.264;19.884;2023-02-26T11:35:38;154.00;2252.80
55329;DHT22;41205;44.264;19.884;2023-02-26T11:38:04;154.10;2252.80
55329;DHT22;41205;44.264;19.884;2023-02-26T11:40:41;154.20;2252.80
55329;DHT22;41205;44.264;19.884;2023-02-26T11:43:12;154.00;2252.80
55329;DHT22;41205;44.264;19.884;2023-02-26T11:45:41;154.00;2252.80
55329;DHT22;41205;44.264;19.884;2023-02-26T11:48:14;154.00;2252.80
55329;DHT22;41205;44.264;19.884;2023-02-26T11:50:46;153.90;2252.80
55329;DHT22;41205;44.264;19.884;2023-02-26T11:54:03;153.80;2252.80
55329;DHT22;41205;44.264;19.884;2023-02-26T11:56:12;154.20;2252.80
55329;DHT22;41205;44.264;19.884;2023-02-26T11:58:44;154.50;2252.80
55329;DHT22;41205;44.264;19.884;2023-02-26T12:01:12;154.40;2252.80
55329;DHT22;41205;44.264;19.884;2023-02-26T12:03:39;179.30;2252.80
55329;DHT22;41205;44.264;19.884;2023-02-26T12:06:21;179.60;2252.80
55329;DHT22;41205;44.264;19.884;2023-02-26T12:08:49;179.40;2252.80
55329;DHT22;41205;44.264;19.884;2023-02-26T12:11:50;154.50;2252.80
55329;DHT22;41205;44.264;19.884;2023-02-26T12:17:41;154.10;2252.80
55329;DHT22;41205;44.264;19.884;2023-02-26T12:20:34;153.60;2252.80
55329;DHT22;41205;44.264;19.884;2023-02-26T12:31:49;153.60;2252.80
55329;DHT22;41205;44.264;19.884;2023-02-26T12:47:28;153.70;2252.80
55329;DHT22;41205;44.264;19.884;2023-02-26T12:56:27;128.60;2252.80
55329;DHT22;41205;44.264;19.884;2023-02-26T12:59:02;128.80;2252.80
55329;DHT22;41205;44.264;19.884;2023-02-26T13:01:57;153.60;2252.80
55329;DHT22;41205;44.264;19.884;2023-02-26T13:21:47;128.40;2252.80
55329;DHT22;41205;44.264;19.884;2023-02-26T13:24:19;128.60;2252.80
55329;DHT22;41205;44.264;19.884;2023-02-26T13:26:47;128.80;2252.80
55329;DHT22;41205;44.264;19.884;2023-02-26T13:29:39;128.80;2252.80
55329;DHT22;41205;44.264;19.884;2023-02-26T13:32:13;128.50;2252.80
55329;DHT22;41205;44.264;19.884;2023-02-26T13:34:53;128.50;2252.80
55329;DHT22;41205;44.264;19.884;2023-02-26T13:37:29;128.40;2252.80
55329;DHT22;41205;44.264;19.884;2023-02-26T13:42:49;128.00;2252.80
55329;DHT22;41205;44.264;19.884;2023-02-26T13:56:23;128.50;2252.80
55329;DHT22;41205;44.264;19.884;2023-02-26T14:01:54;128.30;2252.80
55329;DHT22;41205;44.264;19.884;2023-02-26T14:19:44;128.10;2252.80
55329;DHT22;41205;44.264;19.884;2023-02-26T14:24:57;103.30;2227.20
55329;DHT22;41205;44.264;19.884;2023-02-26T14:27:34;103.30;2227.20
55329;DHT22;41205;44.264;19.884;2023-02-26T14:35:09;103.00;2227.20
55329;DHT22;41205;44.264;19.884;2023-02-26T14:37:37;103.00;2227.20
55329;DHT22;41205;44.264;19.884;2023-02-26T14:40:11;103.00;2227.20
55329;DHT22;41205;44.264;19.884;2023-02-26T14:47:50;103.10;2227.20
55329;DHT22;41205;44.264;19.884;2023-02-26T14:50:20;103.30;2227.20
55329;DHT22;41205;44.264;19.884;2023-02-26T15:01:28;102.80;2227.20
55329;DHT22;41205;44.264;19.884;2023-02-26T15:06:57;102.70;2227.20
55329;DHT22;41205;44.264;19.884;2023-02-26T15:25:45;102.70;2227.20
55329;DHT22;41205;44.264;19.884;2023-02-26T15:28:32;102.60;2227.20
55329;DHT22;41205;44.264;19.884;2023-02-26T15:31:03;102.80;2227.20
55329;DHT22;41205;44.264;19.884;2023-02-26T15:33:31;102.70;2227.20
55329;DHT22;41205;44.264;19.884;2023-02-26T15:35:58;102.80;2227.20
55329;DHT22;41205;44.264;19.884;2023-02-26T15:38:24;102.80;2227.20
55329;DHT22;41205;44.264;19.884;2023-02-26T15:40:54;102.50;2227.20
55329;DHT22;41205;44.264;19.884;2023-02-26T15:43:27;102.60;2227.20
55329;DHT22;41205;44.264;19.884;2023-02-26T15:45:55;102.80;2227.20
55329;DHT22;41205;44.264;19.884;2023-02-26T15:50:55;102.70;2227.20
55329;DHT22;41205;44.264;19.884;2023-02-26T15:53:37;102.70;2227.20
55329;DHT22;41205;44.264;19.884;2023-02-26T15:56:09;102.60;2227.20
55329;DHT22;41205;44.264;19.884;2023-02-26T16:01:19;102.70;2227.20
55329;DHT22;41205;44.264;19.884;2023-02-26T16:03:45;102.70;2227.20
55329;DHT22;41205;44.264;19.884;2023-02-26T16:06:16;102.80;2227.20
55329;DHT22;41205;44.264;19.884;2023-02-26T16:08:42;102.90;2227.20
55329;DHT22;41205;44.264;19.884;2023-02-26T16:11:09;103.00;2227.20
55329;DHT22;41205;44.264;19.884;2023-02-26T16:13:38;103.00;2227.20
55329;DHT22;41205;44.264;19.884;2023-02-26T16:16:18;102.90;2227.20
55329;DHT22;41205;44.264;19.884;2023-02-26T16:18:46;102.80;2227.20
55329;DHT22;41205;44.264;19.884;2023-02-26T16:23:53;102.80;2227.20
55329;DHT22;41205;44.264;19.884;2023-02-26T16:26:29;102.60;2227.20
55329;DHT22;41205;44.264;19.884;2023-02-26T16:29:39;102.60;2227.20
55329;DHT22;41205;44.264;19.884;2023-02-26T16:32:04;102.80;2227.20
55329;DHT22;41205;44.264;19.884;2023-02-26T16:37:12;102.70;2227.20
55329;DHT22;41205;44.264;19.884;2023-02-26T16:39:43;102.80;2227.20
55329;DHT22;41205;44.264;19.884;2023-02-26T16:42:15;102.70;2227.20
55329;DHT22;41205;44.264;19.884;2023-02-26T16:47:29;102.60;2227.20
55329;DHT22;41205;44.264;19.884;2023-02-26T16:49:56;102.40;2227.20
55329;DHT22;41205;44.264;19.884;2023-02-26T16:52:23;102.50;2227.20
55329;DHT22;41205;44.264;19.884;2023-02-26T16:55:02;77.70;2227.20
55329;DHT22;41205;44.264;19.884;2023-02-26T16:57:38;77.70;2227.20
55329;DHT22;41205;44.264;19.884;2023-02-26T17:00:10;77.70;2227.20
55329;DHT22;41205;44.264;19.884;2023-02-26T17:02:43;77.70;2227.20
55329;DHT22;41205;44.264;19.884;2023-02-26T17:05:22;77.50;2227.20
55329;DHT22;41205;44.264;19.884;2023-02-26T17:10:38;77.60;2227.20
55329;DHT22;41205;44.264;19.884;2023-02-26T17:13:17;77.60;2227.20
55329;DHT22;41205;44.264;19.884;2023-02-26T17:15:45;77.70;2227.20
55329;DHT22;41205;44.264;19.884;2023-02-26T17:18:12;77.60;2227.20
55329;DHT22;41205;44.264;19.884;2023-02-26T17:33:01;77.70;2227.20
55329;DHT22;41205;44.264;19.884;2023-02-26T17:35:32;77.60;2227.20
55329;DHT22;41205;44.264;19.884;2023-02-26T17:42:52;102.50;2227.20
55329;DHT22;41205;44.264;19.884;2023-02-26T17:52:43;102.50;2227.20
55329;DHT22;41205;44.264;19.884;2023-02-26T17:55:12;102.50;2227.20
55329;DHT22;41205;44.264;19.884;2023-02-26T17:57:37;102.40;2227.20
55329;DHT22;41205;44.264;19.884;2023-02-26T18:00:03;102.40;2227.20
55329;DHT22;41205;44.264;19.884;2023-02-26T18:02:30;102.40;2227.20
55329;DHT22;41205;44.264;19.884;2023-02-26T18:04:55;102.50;2227.20
55329;DHT22;41205;44.264;19.884;2023-02-26T18:07:23;102.50;2227.20
55329;DHT22;41205;44.264;19.884;2023-02-26T18:09:49;102.50;2227.20
55329;DHT22;41205;44.264;19.884;2023-02-26T18:12:18;102.70;2227.20
55329;DHT22;41205;44.264;19.884;2023-02-26T18:14:44;102.60;2227.20
55329;DHT22;41205;44.264;19.884;2023-02-26T18:17:15;102.80;2227.20
55329;DHT22;41205;44.264;19.884;2023-02-26T18:19:42;102.70;2227.20
55329;DHT22;41205;44.264;19.884;2023-02-26T18:22:19;102.60;2227.20
55329;DHT22;41205;44.264;19.884;2023-02-26T18:24:45;102.40;2227.20
55329;DHT22;41205;44.264;19.884;2023-02-26T18:27:15;102.50;2227.20
55329;DHT22;41205;44.264;19.884;2023-02-26T18:29:41;102.40;2227.20
55329;DHT22;41205;44.264;19.884;2023-02-26T18:34:40;102.50;2227.20
55329;DHT22;41205;44.264;19.884;2023-02-26T18:37:07;102.50;2227.20
55329;DHT22;41205;44.264;19.884;2023-02-26T18:39:35;102.70;2227.20
55329;DHT22;41205;44.264;19.884;2023-02-26T18:42:02;102.50;2227.20
55329;DHT22;41205;44.264;19.884;2023-02-26T18:44:29;102.60;2227.20
55329;DHT22;41205;44.264;19.884;2023-02-26T18:46:58;102.60;2227.20
55329;DHT22;41205;44.264;19.884;2023-02-26T18:49:23;102.60;2227.20
55329;DHT22;41205;44.264;19.884;2023-02-26T18:51:50;102.50;2227.20
55329;DHT22;41205;44.264;19.884;2023-02-26T18:54:15;102.50;2227.20
55329;DHT22;41205;44.264;19.884;2023-02-26T18:56:41;102.50;2227.20
55329;DHT22;41205;44.264;19.884;2023-02-26T18:59:07;102.40;2227.20
55329;DHT22;41205;44.264;19.884;2023-02-26T19:01:33;102.40;2227.20
55329;DHT22;41205;44.264;19.884;2023-02-26T20:12:16;102.50;2227.20
55329;DHT22;41205;44.264;19.884;2023-02-26T20:14:42;102.40;2227.20
55329;DHT22;41205;44.264;19.884;2023-02-26T20:17:08;77.70;2227.20
55329;DHT22;41205;44.264;19.884;2023-02-26T20:19:34;102.40;2227.20